sensor_id;sensor_type;location;lat;lon;timestamp;P1;P2;P0
26185;PMS7003;20067;48.764;9.176;2023-07-22T00:02:16;7.00;7.00;3.25
26185;PMS7003;20067;48.764;9.176;2023-07-22T00:04:41;10.75;10.00;5.25
26185;PMS7003;20067;48.764;9.176;2023-07-22T00:07:07;7.75;7.75;4.00
26185;PMS7003;20067;48.764;9.176;2023-07-22T00:12:04;9.75;9.00;4.25
26185;PMS7003;20067;48.764;9.176;2023-07-22T00:14:30;11.00;9.50;5.00
26185;PMS7003;20067;48.764;9.176;2023-07-22T00:16:55;8.75;8.75;4.50
26185;PMS7003;20067;48.764;9.176;2023-07-22T00:19:21;9.00;9.00;5.00
26185;PMS7003;20067;48.764;9.176;2023-07-22T00:21:48;10.50;9.00;3.75
26185;PMS7003;20067;48.764;9.176;2023-07-22T00:24:14;9.00;9.00;5.25
26185;PMS7003;20067;48.764;9.176;2023-07-22T00:26:39;10.00;10.00;4.75
26185;PMS7003;20067;48.764;9.176;2023-07-22T00:29:05;10.00;10.00;6.00
26185;PMS7003;20067;48.764;9.176;2023-07-22T00:31:30;9.50;7.75;5.00
26185;PMS7003;20067;48.764;9.176;2023-07-22T00:33:56;8.25;8.25;5.00
26185;PMS7003;20067;48.764;9.176;2023-07-22T00:36:22;6.50;6.50;2.75
26185;PMS7003;20067;48.764;9.176;2023-07-22T00:38:47;9.00;9.00;5.00
26185;PMS7003;20067;48.764;9.176;2023-07-22T00:41:13;10.00;9.50;5.50
26185;PMS7003;20067;48.764;9.176;2023-07-22T00:43:39;8.00;6.75;3.00
26185;PMS7003;20067;48.764;9.176;2023-07-22T00:46:04;12.50;10.00;6.00
26185;PMS7003;20067;48.764;9.176;2023-07-22T00:48:30;8.25;8.00;3.50
26185;PMS7003;20067;48.764;9.176;2023-07-22T00:50:57;9.00;8.25;3.75
26185;PMS7003;20067;48.764;9.176;2023-07-22T00:53:23;9.50;7.50;3.00
26185;PMS7003;20067;48.764;9.176;2023-07-22T00:55:48;9.50;9.50;4.00
26185;PMS7003;20067;48.764;9.176;2023-07-22T00:58:14;10.00;9.00;3.00
26185;PMS7003;20067;48.764;9.176;2023-07-22T01:00:40;9.00;9.00;3.00
26185;PMS7003;20067;48.764;9.176;2023-07-22T01:03:06;8.50;8.50;4.75
26185;PMS7003;20067;48.764;9.176;2023-07-22T01:05:33;9.00;9.00;5.00
26185;PMS7003;20067;48.764;9.176;2023-07-22T01:08:01;7.25;7.25;4.25
26185;PMS7003;20067;48.764;9.176;2023-07-22T01:10:27;8.00;8.00;5.00
26185;PMS7003;20067;48.764;9.176;2023-07-22T01:12:53;9.00;9.00;5.00
26185;PMS7003;20067;48.764;9.176;2023-07-22T01:15:20;7.00;7.00;3.50
26185;PMS7003;20067;48.764;9.176;2023-07-22T01:17:46;10.75;9.75;5.50
26185;PMS7003;20067;48.764;9.176;2023-07-22T01:20:12;9.50;8.75;4.75
26185;PMS7003;20067;48.764;9.176;2023-07-22T01:22:39;10.00;9.00;5.00
26185;PMS7003;20067;48.764;9.176;2023-07-22T01:25:07;9.00;8.75;4.75
26185;PMS7003;20067;48.764;9.176;2023-07-22T01:27:33;6.00;6.00;4.00
26185;PMS7003;20067;48.764;9.176;2023-07-22T01:29:59;9.25;8.00;4.00
26185;PMS7003;20067;48.764;9.176;2023-07-22T01:32:27;8.75;8.75;5.00
26185;PMS7003;20067;48.764;9.176;2023-07-22T01:34:53;10.00;9.00;4.00
26185;PMS7003;20067;48.764;9.176;2023-07-22T01:37:18;9.00;9.00;4.00
26185;PMS7003;20067;48.764;9.176;2023-07-22T01:39:44;6.50;6.50;2.00
26185;PMS7003;20067;48.764;9.176;2023-07-22T01:42:09;9.00;9.00;2.00
26185;PMS7003;20067;48.764;9.176;2023-07-22T01:44:35;9.00;9.00;4.00
26185;PMS7003;20067;48.764;9.176;2023-07-22T01:47:01;10.50;9.00;2.00
26185;PMS7003;20067;48.764;9.176;2023-07-22T01:49:28;11.00;9.00;2.50
26185;PMS7003;20067;48.764;9.176;2023-07-22T01:51:54;9.50;9.25;4.00
26185;PMS7003;20067;48.764;9.176;2023-07-22T01:54:19;9.00;8.00;4.00
26185;PMS7003;20067;48.764;9.176;2023-07-22T01:56:45;8.00;8.00;4.75
26185;PMS7003;20067;48.764;9.176;2023-07-22T01:59:11;9.00;9.00;5.00
26185;PMS7003;20067;48.764;9.176;2023-07-22T02:01:36;9.75;9.25;5.00
26185;PMS7003;20067;48.764;9.176;2023-07-22T02:04:02;10.00;9.00;4.00
26185;PMS7003;20067;48.764;9.176;2023-07-22T02:06:27;8.50;8.50;5.00
26185;PMS7003;20067;48.764;9.176;2023-07-22T02:08:54;10.00;10.00;5.50
26185;PMS7003;20067;48.764;9.176;2023-07-22T02:11:20;10.00;10.00;5.00
26185;PMS7003;20067;48.764;9.176;2023-07-22T02:13:46;9.00;9.00;5.00
26185;PMS7003;20067;48.764;9.176;2023-07-22T02:16:12;9.25;9.25;5.50
26185;PMS7003;20067;48.764;9.176;2023-07-22T02:18:37;10.75;9.75;5.00
26185;PMS7003;20067;48.764;9.176;2023-07-22T02:21:03;11.50;10.00;6.00
26185;PMS7003;20067;48.764;9.176;2023-07-22T02:23:29;10.00;10.00;4.50
26185;PMS7003;20067;48.764;9.176;2023-07-22T02:25:54;9.75;9.00;5.25
26185;PMS7003;20067;48.764;9.176;2023-07-22T02:28:20;9.00;9.00;5.00
26185;PMS7003;20067;48.764;9.176;2023-07-22T02:30:50;13.25;12.75;7.00
26185;PMS7003;20067;48.764;9.176;2023-07-22T02:33:18;11.25;10.00;6.00
26185;PMS7003;20067;48.764;9.176;2023-07-22T02:35:44;8.75;8.50;5.00
26185;PMS7003;20067;48.764;9.176;2023-07-22T02:38:10;8.00;8.00;4.50
26185;PMS7003;20067;48.764;9.176;2023-07-22T02:40:38;9.00;9.00;4.75
26185;PMS7003;20067;48.764;9.176;2023-07-22T02:43:04;9.00;9.00;5.00
26185;PMS7003;20067;48.764;9.176;2023-07-22T02:45:31;9.50;9.50;5.00
26185;PMS7003;20067;48.764;9.176;2023-07-22T02:47:58;11.50;9.00;5.00
26185;PMS7003;20067;48.764;9.176;2023-07-22T02:50:23;9.50;8.50;4.75
26185;PMS7003;20067;48.764;9.176;2023-07-22T02:52:50;10.00;8.75;5.00
26185;PMS7003;20067;48.764;9.176;2023-07-22T02:55:16;9.50;8.50;4.50
26185;PMS7003;20067;48.764;9.176;2023-07-22T02:57:46;10.25;9.00;5.00
26185;PMS7003;20067;48.764;9.176;2023-07-22T03:00:12;10.75;9.25;5.00
26185;PMS7003;20067;48.764;9.176;2023-07-22T03:02:40;9.00;9.00;5.00
26185;PMS7003;20067;48.764;9.176;2023-07-22T03:05:06;9.75;9.75;5.75
26185;PMS7003;20067;48.764;9.176;2023-07-22T03:07:36;8.00;6.00;3.50
26185;PMS7003;20067;48.764;9.176;2023-07-22T03:10:04;9.00;9.00;5.50
26185;PMS7003;20067;48.764;9.176;2023-07-22T03:12:31;8.75;8.50;5.00
26185;PMS7003;20067;48.764;9.176;2023-07-22T03:14:57;9.00;9.00;5.00
26185;PMS7003;20067;48.764;9.176;2023-07-22T03:17:22;10.00;9.00;5.00
26185;PMS7003;20067;48.764;9.176;2023-07-22T03:19:48;8.00;8.00;3.50
26185;PMS7003;20067;48.764;9.176;2023-07-22T03:22:14;9.75;9.75;4.75
26185;PMS7003;20067;48.764;9.176;2023-07-22T03:24:43;7.75;7.75;4.00
26185;PMS7003;20067;48.764;9.176;2023-07-22T03:27:10;10.00;10.00;5.00
26185;PMS7003;20067;48.764;9.176;2023-07-22T03:29:36;8.00;8.00;4.00
26185;PMS7003;20067;48.764;9.176;2023-07-22T03:32:02;9.00;9.00;5.00
26185;PMS7003;20067;48.764;9.176;2023-07-22T03:34:29;9.00;8.25;5.00
26185;PMS7003;20067;48.764;9.176;2023-07-22T03:36:56;10.50;8.75;4.25
26185;PMS7003;20067;48.764;9.176;2023-07-22T03:39:21;10.00;9.00;5.00
26185;PMS7003;20067;48.764;9.176;2023-07-22T03:41:47;11.00;9.00;5.00
26185;PMS7003;20067;48.764;9.176;2023-07-22T03:44:13;9.00;8.75;4.50
26185;PMS7003;20067;48.764;9.176;2023-07-22T03:46:39;10.00;8.75;5.00
26185;PMS7003;20067;48.764;9.176;2023-07-22T03:49:04;9.25;9.25;5.00
26185;PMS7003;20067;48.764;9.176;2023-07-22T03:51:30;12.25;8.75;4.50
26185;PMS7003;20067;48.764;9.176;2023-07-22T03:53:56;9.00;9.00;5.00
26185;PMS7003;20067;48.764;9.176;2023-07-22T03:56:22;8.25;8.00;4.00
26185;PMS7003;20067;48.764;9.176;2023-07-22T03:58:49;12.00;11.00;5.00
26185;PMS7003;20067;48.764;9.176;2023-07-22T04:01:15;12.00;9.50;5.00
26185;PMS7003;20067;48.764;9.176;2023-07-22T04:03:41;12.50;11.50;5.75
26185;PMS7003;20067;48.764;9.176;2023-07-22T04:06:06;12.00;12.00;7.50
26185;PMS7003;20067;48.764;9.176;2023-07-22T04:08:32;12.00;12.00;6.00
26185;PMS7003;20067;48.764;9.176;2023-07-22T04:10:58;12.00;11.00;6.00
26185;PMS7003;20067;48.764;9.176;2023-07-22T04:13:24;7.50;7.50;2.00
26185;PMS7003;20067;48.764;9.176;2023-07-22T04:15:51;11.00;9.00;5.00
26185;PMS7003;20067;48.764;9.176;2023-07-22T04:18:18;9.00;9.00;5.00
26185;PMS7003;20067;48.764;9.176;2023-07-22T04:20:45;9.00;8.25;4.00
26185;PMS7003;20067;48.764;9.176;2023-07-22T04:23:13;9.50;9.50;5.00
26185;PMS7003;20067;48.764;9.176;2023-07-22T04:25:44;8.00;8.00;4.25
26185;PMS7003;20067;48.764;9.176;2023-07-22T04:28:10;8.75;8.75;5.25
26185;PMS7003;20067;48.764;9.176;2023-07-22T04:30:36;9.75;8.25;4.00
26185;PMS7003;20067;48.764;9.176;2023-07-22T04:33:03;10.50;8.75;5.00
26185;PMS7003;20067;48.764;9.176;2023-07-22T04:35:33;11.25;11.25;5.00
26185;PMS7003;20067;48.764;9.176;2023-07-22T04:38:03;8.50;8.50;5.00
26185;PMS7003;20067;48.764;9.176;2023-07-22T04:40:29;8.00;8.00;4.00
26185;PMS7003;20067;48.764;9.176;2023-07-22T04:42:58;10.25;10.25;5.25
26185;PMS7003;20067;48.764;9.176;2023-07-22T04:45:23;7.00;7.00;4.50
26185;PMS7003;20067;48.764;9.176;2023-07-22T04:47:52;8.75;8.75;4.00
26185;PMS7003;20067;48.764;9.176;2023-07-22T04:50:18;8.75;8.75;4.00
26185;PMS7003;20067;48.764;9.176;2023-07-22T04:52:47;10.00;10.00;5.25
26185;PMS7003;20067;48.764;9.176;2023-07-22T04:55:13;11.25;11.25;5.75
26185;PMS7003;20067;48.764;9.176;2023-07-22T04:57:39;9.25;8.75;5.00
26185;PMS7003;20067;48.764;9.176;2023-07-22T05:00:06;9.75;9.25;5.75
26185;PMS7003;20067;48.764;9.176;2023-07-22T05:02:38;8.50;8.50;5.00
26185;PMS7003;20067;48.764;9.176;2023-07-22T05:05:04;9.75;9.00;5.25
26185;PMS7003;20067;48.764;9.176;2023-07-22T05:07:30;8.00;8.00;4.00
26185;PMS7003;20067;48.764;9.176;2023-07-22T05:09:55;9.00;8.00;4.50
26185;PMS7003;20067;48.764;9.176;2023-07-22T05:12:21;8.25;8.00;3.50
26185;PMS7003;20067;48.764;9.176;2023-07-22T05:14:47;8.25;8.25;3.50
26185;PMS7003;20067;48.764;9.176;2023-07-22T05:17:14;9.00;8.00;2.00
26185;PMS7003;20067;48.764;9.176;2023-07-22T05:19:40;9.00;8.75;4.00
26185;PMS7003;20067;48.764;9.176;2023-07-22T05:22:05;9.75;9.75;2.50
26185;PMS7003;20067;48.764;9.176;2023-07-22T05:24:31;11.00;9.50;4.00
26185;PMS7003;20067;48.764;9.176;2023-07-22T05:26:56;10.75;9.75;4.00
26185;PMS7003;20067;48.764;9.176;2023-07-22T05:29:22;8.75;8.50;2.00
26185;PMS7003;20067;48.764;9.176;2023-07-22T05:31:47;9.00;9.00;4.25
26185;PMS7003;20067;48.764;9.176;2023-07-22T05:34:13;9.00;9.00;5.00
26185;PMS7003;20067;48.764;9.176;2023-07-22T05:36:39;8.75;8.00;4.25
26185;PMS7003;20067;48.764;9.176;2023-07-22T05:39:05;9.50;9.25;5.00
26185;PMS7003;20067;48.764;9.176;2023-07-22T05:41:32;10.00;10.00;5.75
26185;PMS7003;20067;48.764;9.176;2023-07-22T05:43:58;10.00;9.75;5.00
26185;PMS7003;20067;48.764;9.176;2023-07-22T05:46:24;7.50;7.50;4.50
26185;PMS7003;20067;48.764;9.176;2023-07-22T05:48:49;10.00;8.50;4.75
26185;PMS7003;20067;48.764;9.176;2023-07-22T05:51:15;9.25;8.50;5.00
26185;PMS7003;20067;48.764;9.176;2023-07-22T05:53:42;9.25;9.00;5.00
26185;PMS7003;20067;48.764;9.176;2023-07-22T05:56:07;8.25;8.00;4.25
26185;PMS7003;20067;48.764;9.176;2023-07-22T05:58:34;9.75;9.25;5.00
26185;PMS7003;20067;48.764;9.176;2023-07-22T06:00:59;10.00;10.00;5.00
26185;PMS7003;20067;48.764;9.176;2023-07-22T06:03:25;10.25;10.00;5.25
26185;PMS7003;20067;48.764;9.176;2023-07-22T06:05:51;8.00;8.00;4.00
26185;PMS7003;20067;48.764;9.176;2023-07-22T06:08:16;9.25;7.00;2.75
26185;PMS7003;20067;48.764;9.176;2023-07-22T06:10:42;9.00;8.75;5.00
26185;PMS7003;20067;48.764;9.176;2023-07-22T06:13:08;9.50;9.00;5.00
26185;PMS7003;20067;48.764;9.176;2023-07-22T06:15:34;10.00;9.50;4.75
26185;PMS7003;20067;48.764;9.176;2023-07-22T06:18:00;13.75;9.00;5.00
26185;PMS7003;20067;48.764;9.176;2023-07-22T06:20:26;12.00;9.25;4.50
26185;PMS7003;20067;48.764;9.176;2023-07-22T06:22:52;9.75;9.00;5.00
26185;PMS7003;20067;48.764;9.176;2023-07-22T06:25:18;11.50;11.50;6.00
26185;PMS7003;20067;48.764;9.176;2023-07-22T06:27:43;10.25;9.25;5.00
26185;PMS7003;20067;48.764;9.176;2023-07-22T06:30:09;10.50;9.50;4.50
26185;PMS7003;20067;48.764;9.176;2023-07-22T06:32:36;9.00;9.00;5.00
26185;PMS7003;20067;48.764;9.176;2023-07-22T06:35:03;10.50;10.50;5.00
26185;PMS7003;20067;48.764;9.176;2023-07-22T06:37:29;8.00;8.00;5.00
26185;PMS7003;20067;48.764;9.176;2023-07-22T06:39:55;9.00;7.50;5.00
26185;PMS7003;20067;48.764;9.176;2023-07-22T06:42:20;7.00;6.75;3.00
26185;PMS7003;20067;48.764;9.176;2023-07-22T06:44:46;10.00;9.00;3.00
26185;PMS7003;20067;48.764;9.176;2023-07-22T06:47:12;10.75;10.50;5.50
26185;PMS7003;20067;48.764;9.176;2023-07-22T06:49:38;8.50;8.50;4.50
26185;PMS7003;20067;48.764;9.176;2023-07-22T06:52:04;11.00;11.00;6.00
26185;PMS7003;20067;48.764;9.176;2023-07-22T06:54:30;9.00;9.00;3.00
26185;PMS7003;20067;48.764;9.176;2023-07-22T06:56:56;10.00;9.75;5.00
26185;PMS7003;20067;48.764;9.176;2023-07-22T06:59:21;11.00;10.75;6.00
26185;PMS7003;20067;48.764;9.176;2023-07-22T07:01:47;11.00;9.00;4.50
26185;PMS7003;20067;48.764;9.176;2023-07-22T07:04:12;9.00;9.00;5.00
26185;PMS7003;20067;48.764;9.176;2023-07-22T07:06:38;9.75;8.25;3.00
26185;PMS7003;20067;48.764;9.176;2023-07-22T07:09:04;12.75;10.75;6.00
26185;PMS7003;20067;48.764;9.176;2023-07-22T07:11:30;10.75;8.75;5.00
26185;PMS7003;20067;48.764;9.176;2023-07-22T07:13:56;8.50;8.50;5.00
26185;PMS7003;20067;48.764;9.176;2023-07-22T07:18:50;12.75;12.75;4.50
26185;PMS7003;20067;48.764;9.176;2023-07-22T07:21:16;9.00;9.00;3.00
26185;PMS7003;20067;48.764;9.176;2023-07-22T07:23:42;8.75;8.75;3.00
26185;PMS7003;20067;48.764;9.176;2023-07-22T07:26:08;10.25;10.25;3.00
26185;PMS7003;20067;48.764;9.176;2023-07-22T07:28:33;9.00;9.00;3.00
26185;PMS7003;20067;48.764;9.176;2023-07-22T07:30:59;12.00;10.25;4.75
26185;PMS7003;20067;48.764;9.176;2023-07-22T07:33:25;11.00;9.50;4.50
26185;PMS7003;20067;48.764;9.176;2023-07-22T07:35:50;10.75;10.75;7.00
26185;PMS7003;20067;48.764;9.176;2023-07-22T07:38:16;8.00;7.75;5.00
26185;PMS7003;20067;48.764;9.176;2023-07-22T07:40:42;8.50;8.50;5.75
26185;PMS7003;20067;48.764;9.176;2023-07-22T07:43:08;8.75;7.75;4.75
26185;PMS7003;20067;48.764;9.176;2023-07-22T07:45:34;8.50;8.00;3.50
26185;PMS7003;20067;48.764;9.176;2023-07-22T07:48:03;8.25;8.00;4.00
26185;PMS7003;20067;48.764;9.176;2023-07-22T07:50:29;7.00;7.00;3.50
26185;PMS7003;20067;48.764;9.176;2023-07-22T07:52:54;9.50;7.00;3.00
26185;PMS7003;20067;48.764;9.176;2023-07-22T07:55:20;8.25;7.25;3.25
26185;PMS7003;20067;48.764;9.176;2023-07-22T07:57:45;8.25;7.00;3.75
26185;PMS7003;20067;48.764;9.176;2023-07-22T08:00:11;8.25;8.25;6.00
26185;PMS7003;20067;48.764;9.176;2023-07-22T08:02:37;8.75;8.00;4.00
26185;PMS7003;20067;48.764;9.176;2023-07-22T08:05:03;6.75;6.75;3.00
26185;PMS7003;20067;48.764;9.176;2023-07-22T08:07:29;8.50;8.50;1.75
26185;PMS7003;20067;48.764;9.176;2023-07-22T08:09:55;14.25;11.00;2.00
26185;PMS7003;20067;48.764;9.176;2023-07-22T08:12:22;10.00;9.00;2.00
26185;PMS7003;20067;48.764;9.176;2023-07-22T08:14:48;10.25;10.25;3.00
26185;PMS7003;20067;48.764;9.176;2023-07-22T08:17:14;13.50;12.00;2.00
26185;PMS7003;20067;48.764;9.176;2023-07-22T08:19:39;12.25;12.25;4.00
26185;PMS7003;20067;48.764;9.176;2023-07-22T08:22:05;8.75;8.75;2.50
26185;PMS7003;20067;48.764;9.176;2023-07-22T08:24:31;8.00;8.00;1.50
26185;PMS7003;20067;48.764;9.176;2023-07-22T08:26:57;13.75;11.75;2.75
26185;PMS7003;20067;48.764;9.176;2023-07-22T08:29:23;13.25;12.75;2.00
26185;PMS7003;20067;48.764;9.176;2023-07-22T08:31:49;9.25;8.25;1.25
26185;PMS7003;20067;48.764;9.176;2023-07-22T08:34:15;10.50;10.50;2.00
26185;PMS7003;20067;48.764;9.176;2023-07-22T08:36:41;7.75;7.75;2.00
26185;PMS7003;20067;48.764;9.176;2023-07-22T08:39:07;8.00;8.00;1.25
26185;PMS7003;20067;48.764;9.176;2023-07-22T08:41:32;8.00;8.00;2.00
26185;PMS7003;20067;48.764;9.176;2023-07-22T08:43:59;9.25;9.25;2.00
26185;PMS7003;20067;48.764;9.176;2023-07-22T08:46:27;10.00;10.00;2.75
26185;PMS7003;20067;48.764;9.176;2023-07-22T08:48:56;14.00;13.00;3.00
26185;PMS7003;20067;48.764;9.176;2023-07-22T08:51:25;9.25;8.75;2.25
26185;PMS7003;20067;48.764;9.176;2023-07-22T08:53:55;14.25;14.25;8.00
26185;PMS7003;20067;48.764;9.176;2023-07-22T08:56:24;8.00;7.00;2.00
26185;PMS7003;20067;48.764;9.176;2023-07-22T08:58:51;13.00;12.25;3.50
26185;PMS7003;20067;48.764;9.176;2023-07-22T09:01:17;11.75;10.50;2.75
26185;PMS7003;20067;48.764;9.176;2023-07-22T09:03:43;10.00;10.00;2.00
26185;PMS7003;20067;48.764;9.176;2023-07-22T09:06:09;10.00;9.00;2.00
26185;PMS7003;20067;48.764;9.176;2023-07-22T09:08:36;7.75;7.75;2.00
26185;PMS7003;20067;48.764;9.176;2023-07-22T09:11:03;6.00;6.00;1.75
26185;PMS7003;20067;48.764;9.176;2023-07-22T09:13:29;9.75;9.00;2.00
26185;PMS7003;20067;48.764;9.176;2023-07-22T09:15:57;14.50;14.50;3.00
26185;PMS7003;20067;48.764;9.176;2023-07-22T09:18:23;9.00;9.00;2.00
26185;PMS7003;20067;48.764;9.176;2023-07-22T09:20:49;9.75;9.00;2.00
26185;PMS7003;20067;48.764;9.176;2023-07-22T09:23:15;9.75;9.75;2.00
26185;PMS7003;20067;48.764;9.176;2023-07-22T09:25:41;12.50;8.50;1.00
26185;PMS7003;20067;48.764;9.176;2023-07-22T09:28:07;10.00;10.00;2.00
26185;PMS7003;20067;48.764;9.176;2023-07-22T09:30:34;16.75;15.75;3.00
26185;PMS7003;20067;48.764;9.176;2023-07-22T09:33:02;9.75;7.75;1.25
26185;PMS7003;20067;48.764;9.176;2023-07-22T09:35:29;8.00;8.00;2.00
26185;PMS7003;20067;48.764;9.176;2023-07-22T09:38:09;9.00;9.00;1.25
26185;PMS7003;20067;48.764;9.176;2023-07-22T09:40:35;12.75;12.75;6.00
26185;PMS7003;20067;48.764;9.176;2023-07-22T09:43:01;13.00;13.00;3.00
26185;PMS7003;20067;48.764;9.176;2023-07-22T09:45:28;8.50;7.25;2.00
26185;PMS7003;20067;48.764;9.176;2023-07-22T09:47:55;7.25;7.25;2.00
26185;PMS7003;20067;48.764;9.176;2023-07-22T09:50:23;8.75;7.75;2.00
26185;PMS7003;20067;48.764;9.176;2023-07-22T09:55:23;7.50;7.50;2.00
26185;PMS7003;20067;48.764;9.176;2023-07-22T09:57:51;11.50;11.50;5.25
26185;PMS7003;20067;48.764;9.176;2023-07-22T10:00:19;8.00;7.00;2.00
26185;PMS7003;20067;48.764;9.176;2023-07-22T10:02:46;7.25;7.00;2.00
26185;PMS7003;20067;48.764;9.176;2023-07-22T10:05:14;7.75;7.00;2.00
26185;PMS7003;20067;48.764;9.176;2023-07-22T10:07:43;8.00;8.00;2.00
26185;PMS7003;20067;48.764;9.176;2023-07-22T10:10:15;11.00;10.00;2.00
26185;PMS7003;20067;48.764;9.176;2023-07-22T10:12:45;8.50;8.50;2.50
26185;PMS7003;20067;48.764;9.176;2023-07-22T10:15:13;8.75;8.00;2.00
26185;PMS7003;20067;48.764;9.176;2023-07-22T10:17:40;7.25;7.00;1.00
26185;PMS7003;20067;48.764;9.176;2023-07-22T10:20:07;10.50;10.50;3.00
26185;PMS7003;20067;48.764;9.176;2023-07-22T10:22:35;10.75;9.75;4.00
26185;PMS7003;20067;48.764;9.176;2023-07-22T10:25:05;13.75;13.25;4.50
26185;PMS7003;20067;48.764;9.176;2023-07-22T10:27:33;11.00;10.25;4.00
26185;PMS7003;20067;48.764;9.176;2023-07-22T10:30:00;10.50;10.50;3.00
26185;PMS7003;20067;48.764;9.176;2023-07-22T10:32:46;8.00;8.00;2.00
26185;PMS7003;20067;48.764;9.176;2023-07-22T10:35:13;8.25;7.00;1.00
26185;PMS7003;20067;48.764;9.176;2023-07-22T10:38:06;8.00;8.00;2.75
26185;PMS7003;20067;48.764;9.176;2023-07-22T10:40:34;9.50;9.50;2.75
26185;PMS7003;20067;48.764;9.176;2023-07-22T10:43:09;8.75;8.75;2.50
26185;PMS7003;20067;48.764;9.176;2023-07-22T10:45:49;7.00;7.00;1.00
26185;PMS7003;20067;48.764;9.176;2023-07-22T10:48:16;7.00;7.00;1.00
26185;PMS7003;20067;48.764;9.176;2023-07-22T11:01:23;7.75;7.00;1.00
26185;PMS7003;20067;48.764;9.176;2023-07-22T11:06:57;6.75;6.75;2.00
26185;PMS7003;20067;48.764;9.176;2023-07-22T11:14:51;8.50;7.00;1.75
26185;PMS7003;20067;48.764;9.176;2023-07-22T11:17:30;8.25;8.25;3.00
26185;PMS7003;20067;48.764;9.176;2023-07-22T11:19:57;8.25;8.25;1.50
26185;PMS7003;20067;48.764;9.176;2023-07-22T11:22:24;7.00;7.00;2.00
26185;PMS7003;20067;48.764;9.176;2023-07-22T11:24:50;8.25;7.75;2.75
26185;PMS7003;20067;48.764;9.176;2023-07-22T11:27:18;7.25;6.00;2.00
26185;PMS7003;20067;48.764;9.176;2023-07-22T11:29:44;5.50;5.50;2.00
26185;PMS7003;20067;48.764;9.176;2023-07-22T11:32:14;8.25;8.25;3.00
26185;PMS7003;20067;48.764;9.176;2023-07-22T11:34:44;7.00;7.00;1.75
26185;PMS7003;20067;48.764;9.176;2023-07-22T11:37:10;9.00;9.00;3.00
26185;PMS7003;20067;48.764;9.176;2023-07-22T11:39:36;7.00;7.00;2.50
26185;PMS7003;20067;48.764;9.176;2023-07-22T11:42:03;8.00;8.00;3.00
26185;PMS7003;20067;48.764;9.176;2023-07-22T11:44:29;8.00;7.50;3.00
26185;PMS7003;20067;48.764;9.176;2023-07-22T11:46:56;8.00;8.00;4.00
26185;PMS7003;20067;48.764;9.176;2023-07-22T11:51:54;11.25;11.25;3.00
26185;PMS7003;20067;48.764;9.176;2023-07-22T11:54:21;8.50;7.75;2.00
26185;PMS7003;20067;48.764;9.176;2023-07-22T11:56:47;7.25;7.25;3.00
26185;PMS7003;20067;48.764;9.176;2023-07-22T11:59:13;6.25;6.25;3.00
26185;PMS7003;20067;48.764;9.176;2023-07-22T12:01:38;8.00;7.00;4.00
26185;PMS7003;20067;48.764;9.176;2023-07-22T12:04:11;6.25;6.25;2.75
26185;PMS7003;20067;48.764;9.176;2023-07-22T12:06:40;7.00;7.00;2.50
26185;PMS7003;20067;48.764;9.176;2023-07-22T12:09:09;7.25;7.00;3.00
26185;PMS7003;20067;48.764;9.176;2023-07-22T12:11:35;7.00;6.25;2.25
26185;PMS7003;20067;48.764;9.176;2023-07-22T12:14:08;8.00;6.50;2.75
26185;PMS7003;20067;48.764;9.176;2023-07-22T12:16:35;7.25;7.00;3.00
26185;PMS7003;20067;48.764;9.176;2023-07-22T12:19:02;9.50;8.00;3.75
26185;PMS7003;20067;48.764;9.176;2023-07-22T12:21:29;7.25;7.25;2.75
26185;PMS7003;20067;48.764;9.176;2023-07-22T12:23:54;9.00;7.25;2.25
26185;PMS7003;20067;48.764;9.176;2023-07-22T12:26:20;8.50;8.00;3.00
26185;PMS7003;20067;48.764;9.176;2023-07-22T12:28:46;6.00;6.00;2.00
26185;PMS7003;20067;48.764;9.176;2023-07-22T12:31:12;6.75;6.75;2.00
26185;PMS7003;20067;48.764;9.176;2023-07-22T12:33:38;7.50;7.50;2.00
26185;PMS7003;20067;48.764;9.176;2023-07-22T12:36:03;8.75;8.00;3.00
26185;PMS7003;20067;48.764;9.176;2023-07-22T12:38:30;7.00;6.50;2.25
26185;PMS7003;20067;48.764;9.176;2023-07-22T12:40:57;6.50;6.50;2.00
26185;PMS7003;20067;48.764;9.176;2023-07-22T12:43:23;8.00;8.00;2.00
26185;PMS7003;20067;48.764;9.176;2023-07-22T12:45:49;10.00;7.50;2.00
26185;PMS7003;20067;48.764;9.176;2023-07-22T12:48:15;6.25;6.25;2.00
26185;PMS7003;20067;48.764;9.176;2023-07-22T12:50:42;6.00;6.00;2.00
26185;PMS7003;20067;48.764;9.176;2023-07-22T12:53:08;8.50;7.50;2.00
26185;PMS7003;20067;48.764;9.176;2023-07-22T12:55:34;7.75;7.00;3.00
26185;PMS7003;20067;48.764;9.176;2023-07-22T12:57:59;9.75;8.75;3.00
26185;PMS7003;20067;48.764;9.176;2023-07-22T13:00:25;9.25;9.00;3.00
26185;PMS7003;20067;48.764;9.176;2023-07-22T13:02:51;7.00;7.00;3.00
26185;PMS7003;20067;48.764;9.176;2023-07-22T13:05:17;8.00;8.00;2.00
26185;PMS7003;20067;48.764;9.176;2023-07-22T13:07:43;9.00;9.00;3.00
26185;PMS7003;20067;48.764;9.176;2023-07-22T13:10:09;7.50;7.25;2.00
26185;PMS7003;20067;48.764;9.176;2023-07-22T13:12:37;7.50;7.50;2.50
26185;PMS7003;20067;48.764;9.176;2023-07-22T13:15:03;8.00;7.00;2.00
26185;PMS7003;20067;48.764;9.176;2023-07-22T13:17:29;7.00;7.00;2.00
26185;PMS7003;20067;48.764;9.176;2023-07-22T13:19:56;6.50;6.50;2.25
26185;PMS7003;20067;48.764;9.176;2023-07-22T13:22:21;6.00;6.00;2.00
26185;PMS7003;20067;48.764;9.176;2023-07-22T13:24:48;6.00;6.00;2.00
26185;PMS7003;20067;48.764;9.176;2023-07-22T13:27:14;7.00;7.00;2.00
26185;PMS7003;20067;48.764;9.176;2023-07-22T13:29:39;8.00;7.00;3.00
26185;PMS7003;20067;48.764;9.176;2023-07-22T13:32:05;7.50;7.50;3.00
26185;PMS7003;20067;48.764;9.176;2023-07-22T13:34:31;8.00;8.00;3.00
26185;PMS7003;20067;48.764;9.176;2023-07-22T13:36:57;8.00;7.50;3.00
26185;PMS7003;20067;48.764;9.176;2023-07-22T13:39:23;8.50;7.75;3.00
26185;PMS7003;20067;48.764;9.176;2023-07-22T13:41:48;7.50;7.50;2.00
26185;PMS7003;20067;48.764;9.176;2023-07-22T13:44:15;12.00;10.00;4.00
26185;PMS7003;20067;48.764;9.176;2023-07-22T13:46:41;9.25;8.00;3.00
26185;PMS7003;20067;48.764;9.176;2023-07-22T13:49:07;10.00;10.00;2.00
26185;PMS7003;20067;48.764;9.176;2023-07-22T13:51:32;8.00;8.00;2.00
26185;PMS7003;20067;48.764;9.176;2023-07-22T13:53:59;8.75;8.75;2.00
26185;PMS7003;20067;48.764;9.176;2023-07-22T13:56:24;11.50;8.25;2.25
26185;PMS7003;20067;48.764;9.176;2023-07-22T13:58:50;8.75;8.00;3.00
26185;PMS7003;20067;48.764;9.176;2023-07-22T14:01:17;8.00;8.00;3.00
26185;PMS7003;20067;48.764;9.176;2023-07-22T14:03:43;7.00;7.00;3.00
26185;PMS7003;20067;48.764;9.176;2023-07-22T14:06:08;7.00;7.00;3.00
26185;PMS7003;20067;48.764;9.176;2023-07-22T14:08:34;8.50;8.50;3.00
26185;PMS7003;20067;48.764;9.176;2023-07-22T14:11:00;8.75;8.50;3.00
26185;PMS7003;20067;48.764;9.176;2023-07-22T14:13:25;8.00;7.25;4.00
26185;PMS7003;20067;48.764;9.176;2023-07-22T14:15:51;7.00;7.00;3.00
26185;PMS7003;20067;48.764;9.176;2023-07-22T14:18:17;9.25;9.00;4.00
26185;PMS7003;20067;48.764;9.176;2023-07-22T14:20:44;11.25;11.25;4.00
26185;PMS7003;20067;48.764;9.176;2023-07-22T14:23:10;8.50;8.50;4.50
26185;PMS7003;20067;48.764;9.176;2023-07-22T14:25:36;9.50;9.50;4.00
26185;PMS7003;20067;48.764;9.176;2023-07-22T14:28:02;8.00;8.00;3.00
26185;PMS7003;20067;48.764;9.176;2023-07-22T14:30:28;7.75;7.00;3.00
26185;PMS7003;20067;48.764;9.176;2023-07-22T14:32:54;10.25;9.75;3.25
26185;PMS7003;20067;48.764;9.176;2023-07-22T14:35:20;8.50;8.00;4.00
26185;PMS7003;20067;48.764;9.176;2023-07-22T14:37:46;10.75;10.00;4.75
26185;PMS7003;20067;48.764;9.176;2023-07-22T14:40:12;8.50;8.50;3.00
26185;PMS7003;20067;48.764;9.176;2023-07-22T14:42:38;10.00;10.00;3.00